createdAt,value
2022-08-18T00:01:16.484Z,24.94
2022-08-18T00:06:19.866Z,24.92
2022-08-18T00:11:21.921Z,24.89
2022-08-18T00:16:23.883Z,24.85
2022-08-18T00:21:26.149Z,24.83
2022-08-18T00:26:30.425Z,24.79
2022-08-18T00:31:34.455Z,24.75
2022-08-18T00:36:36.404Z,24.71
2022-08-18T00:41:38.189Z,24.67
2022-08-18T00:46:39.955Z,24.62
2022-08-18T00:51:48.347Z,24.57
2022-08-18T00:56:55.582Z,24.53
2022-08-18T01:02:02.776Z,24.52
2022-08-18T01:07:22.229Z,24.45
2022-08-18T01:12:39.446Z,24.42
2022-08-18T01:18:05.602Z,24.40
2022-08-18T01:23:15.497Z,24.39
2022-08-18T01:28:20.987Z,24.37
2022-08-18T01:33:22.766Z,24.37
2022-08-18T01:38:32.518Z,24.34
2022-08-18T01:43:36.239Z,24.34
2022-08-18T01:48:39.689Z,24.34
2022-08-18T01:53:41.965Z,24.32
2022-08-18T01:58:44.706Z,24.30
2022-08-18T02:03:53.005Z,24.32
2022-08-18T02:08:54.756Z,24.35
2022-08-18T02:13:56.655Z,24.35
2022-08-18T02:18:58.513Z,24.35
2022-08-18T02:24:00.301Z,24.35
2022-08-18T02:29:02.085Z,24.34
2022-08-18T02:34:03.923Z,24.31
2022-08-18T02:39:05.708Z,24.30
2022-08-18T02:44:08.965Z,24.28
2022-08-18T02:49:10.920Z,24.24
2022-08-18T02:54:12.826Z,24.21
2022-08-18T02:59:19.553Z,24.20
2022-08-18T03:04:29.575Z,24.17
2022-08-18T03:09:34.621Z,24.15
2022-08-18T03:14:40.030Z,24.11
2022-08-18T03:19:45.246Z,24.09
2022-08-18T03:24:49.813Z,24.06
2022-08-18T03:29:51.924Z,24.05
2022-08-18T03:34:54.263Z,24.02
2022-08-18T03:39:56.228Z,24.02
2022-08-18T03:44:58.270Z,24.02
2022-08-18T03:50:00.149Z,24.02
2022-08-18T03:55:02.849Z,24.03
2022-08-18T04:00:05.648Z,24.02
2022-08-18T04:05:07.842Z,24.02
2022-08-18T04:10:14.000Z,23.97
2022-08-18T04:15:21.489Z,23.90
2022-08-18T04:20:24.462Z,23.88
2022-08-18T04:25:32.173Z,23.81
2022-08-18T04:30:34.905Z,23.75
2022-08-18T04:35:36.762Z,23.72
2022-08-18T04:40:38.638Z,23.73
2022-08-18T04:45:45.078Z,23.76
2022-08-18T04:50:47.135Z,23.77
2022-08-18T04:55:53.945Z,23.78
2022-08-18T05:01:01.879Z,23.82
2022-08-18T05:06:05.636Z,23.86
2022-08-18T05:11:07.599Z,23.88
2022-08-18T05:16:13.968Z,23.94
2022-08-18T05:21:21.855Z,23.98
2022-08-18T05:26:27.974Z,24.02
2022-08-18T05:31:30.733Z,24.04
2022-08-18T05:36:52.087Z,24.07
2022-08-18T05:41:55.898Z,24.13
2022-08-18T05:47:07.928Z,24.26
2022-08-18T05:52:17.419Z,24.41
2022-08-18T05:57:22.644Z,24.56
2022-08-18T06:02:47.502Z,24.72
2022-08-18T06:07:55.869Z,24.87
2022-08-18T06:13:00.707Z,25.05
2022-08-18T06:18:08.566Z,25.23
2022-08-18T06:23:33.110Z,25.40
2022-08-18T06:29:03.320Z,25.61
2022-08-18T06:34:11.251Z,25.78
2022-08-18T06:39:35.304Z,25.96
2022-08-18T06:44:44.519Z,26.15
2022-08-18T06:50:07.601Z,26.33
2022-08-18T06:55:17.174Z,26.38
2022-08-18T07:00:19.129Z,26.44
2022-08-18T07:05:32.279Z,26.47
2022-08-18T07:10:39.639Z,26.46
2022-08-18T07:15:44.247Z,26.50
2022-08-18T07:20:56.177Z,26.53
2022-08-18T07:26:06.982Z,26.60
2022-08-18T07:31:35.403Z,26.64
2022-08-18T07:36:47.629Z,26.68
2022-08-18T07:41:57.698Z,26.69
2022-08-18T07:47:12.323Z,26.74
2022-08-18T07:52:44.402Z,26.82
2022-08-18T07:57:51.576Z,26.85
2022-08-18T08:03:32.222Z,26.84
2022-08-18T08:08:37.928Z,26.82
2022-08-18T08:14:07.548Z,26.90
2022-08-18T08:20:00.428Z,27.02
2022-08-18T08:25:44.656Z,27.18
2022-08-18T08:31:32.960Z,27.46
2022-08-18T08:36:41.837Z,27.99
2022-08-18T08:42:34.592Z,28.37
2022-08-18T08:48:17.929Z,28.47
2022-08-18T08:53:41.956Z,28.43
2022-08-18T08:59:00.598Z,28.41
2022-08-18T09:04:24.440Z,28.42
2022-08-18T09:09:32.262Z,28.68
2022-08-18T09:15:12.568Z,29.00
2022-08-18T09:20:33.210Z,28.94
2022-08-18T09:25:38.066Z,28.84
2022-08-18T09:30:47.688Z,28.83
2022-08-18T09:36:13.040Z,28.86
2022-08-18T09:41:31.997Z,28.85
2022-08-18T09:46:43.708Z,28.80
2022-08-18T09:51:46.027Z,28.74
2022-08-18T09:56:55.810Z,28.71
2022-08-18T10:02:03.726Z,28.68
2022-08-18T10:13:31.570Z,28.68
2022-08-18T10:19:11.314Z,28.71
2022-08-18T10:24:36.870Z,28.74
2022-08-18T10:29:49.625Z,28.70
2022-08-18T10:34:53.840Z,28.67
2022-08-18T10:40:14.070Z,28.64
2022-08-18T10:45:25.661Z,28.64
2022-08-18T10:50:35.407Z,28.65
2022-08-18T10:55:48.706Z,28.72
2022-08-18T11:01:01.468Z,28.85
2022-08-18T11:06:14.581Z,29.02
2022-08-18T11:11:34.643Z,28.90
2022-08-18T11:16:55.811Z,28.84
2022-08-18T11:21:57.893Z,28.75
2022-08-18T11:27:09.733Z,28.65
2022-08-18T11:32:27.758Z,28.55
2022-08-18T11:37:52.254Z,28.38
2022-08-18T11:43:03.935Z,28.23
2022-08-18T11:48:14.692Z,28.06
2022-08-18T11:53:35.561Z,27.94
2022-08-18T11:58:46.021Z,27.86
2022-08-18T12:03:52.725Z,27.77
2022-08-18T12:09:04.742Z,27.71
2022-08-18T12:14:29.854Z,27.72
2022-08-18T12:19:35.283Z,27.78
2022-08-18T12:30:03.214Z,27.84
2022-08-18T12:35:08.258Z,27.79
2022-08-18T12:40:13.749Z,27.79
2022-08-18T12:45:16.890Z,27.77
2022-08-18T12:50:18.793Z,27.81
2022-08-18T12:55:21.880Z,27.79
2022-08-18T13:00:28.081Z,27.82
2022-08-18T13:05:31.176Z,27.88
2022-08-18T13:10:42.970Z,27.82
2022-08-18T13:15:57.949Z,27.81
2022-08-18T13:21:01.765Z,27.85
2022-08-18T13:26:07.114Z,27.91
2022-08-18T13:31:10.938Z,28.01
2022-08-18T13:36:13.822Z,28.21
2022-08-18T13:41:16.911Z,28.53
2022-08-18T13:46:24.296Z,28.77
2022-08-18T13:51:33.557Z,28.96
2022-08-18T13:56:35.616Z,29.08
2022-08-18T14:01:44.884Z,29.13
2022-08-18T14:06:59.149Z,29.19
2022-08-18T14:12:06.801Z,29.09
2022-08-18T14:17:17.656Z,28.99
2022-08-18T14:22:39.974Z,29.02
2022-08-18T14:27:43.633Z,29.11
2022-08-18T14:32:59.972Z,29.16
2022-08-18T14:38:02.997Z,29.20
2022-08-18T14:43:09.369Z,29.25
2022-08-18T14:48:11.734Z,29.27
2022-08-18T14:53:15.249Z,29.28
2022-08-18T14:58:18.717Z,29.29
2022-08-18T15:03:28.350Z,29.30
2022-08-18T15:08:38.542Z,29.26
2022-08-18T15:13:46.605Z,29.18
2022-08-18T15:18:49.161Z,29.13
2022-08-18T15:24:19.437Z,29.13
2022-08-18T15:29:29.023Z,29.08
2022-08-18T15:34:31.451Z,29.04
2022-08-18T15:39:34.670Z,28.99
2022-08-18T15:44:36.641Z,28.99
2022-08-18T15:49:40.164Z,29.02
2022-08-18T15:54:42.367Z,28.94
2022-08-18T15:59:44.552Z,28.88
2022-08-18T16:04:53.396Z,28.77
2022-08-18T16:09:55.609Z,28.68
2022-08-18T16:14:57.590Z,28.63
2022-08-18T16:20:00.208Z,28.61
2022-08-18T16:25:05.549Z,28.57
2022-08-18T16:30:10.913Z,28.58
2022-08-18T16:35:13.957Z,28.56
2022-08-18T16:40:19.737Z,28.50
2022-08-18T16:45:22.204Z,28.44
2022-08-18T16:50:25.583Z,28.41
2022-08-18T16:55:27.685Z,28.35
2022-08-18T17:00:54.925Z,28.32
2022-08-18T17:06:03.928Z,28.22
2022-08-18T17:11:10.063Z,28.18
2022-08-18T17:16:13.499Z,28.13
2022-08-18T17:21:20.206Z,28.07
2022-08-18T17:26:53.446Z,28.03
2022-08-18T17:32:06.181Z,27.97
2022-08-18T17:37:11.748Z,27.93
2022-08-18T17:42:25.847Z,27.88
2022-08-18T17:47:36.270Z,27.84
2022-08-18T17:52:52.687Z,27.79
2022-08-18T17:58:03.861Z,27.71
2022-08-18T18:03:06.479Z,27.65
2022-08-18T18:08:10.188Z,27.61
2022-08-18T18:13:29.074Z,27.55
2022-08-18T18:18:43.371Z,27.50
2022-08-18T18:23:59.504Z,27.46
2022-08-18T18:29:33.411Z,27.39
2022-08-18T18:34:44.227Z,27.31
2022-08-18T18:39:56.779Z,27.25
2022-08-18T18:45:02.190Z,27.17
2022-08-18T18:50:12.845Z,27.09
2022-08-18T18:55:19.382Z,27.06
2022-08-18T19:00:30.349Z,27.02
2022-08-18T19:06:06.041Z,26.96
2022-08-18T19:11:22.674Z,26.89
2022-08-18T19:16:47.997Z,26.84
2022-08-18T19:22:05.511Z,26.79
2022-08-18T19:27:23.005Z,26.75
2022-08-18T19:32:39.415Z,26.73
2022-08-18T19:38:12.503Z,26.65
2022-08-18T19:43:38.815Z,26.58
2022-08-18T19:48:53.107Z,26.48
2022-08-18T19:54:04.681Z,26.37
2022-08-18T19:59:21.618Z,26.27
2022-08-18T20:05:03.711Z,26.17
2022-08-18T20:10:18.117Z,26.09
2022-08-18T20:15:23.901Z,26.03
2022-08-18T20:20:49.401Z,25.95
2022-08-18T20:25:51.466Z,25.88
2022-08-18T20:31:13.208Z,25.86
2022-08-18T20:36:32.455Z,25.84
2022-08-18T20:41:43.498Z,25.76
2022-08-18T20:47:21.794Z,25.71
2022-08-18T20:52:45.117Z,25.66
2022-08-18T20:57:47.266Z,25.60
2022-08-18T21:02:56.018Z,25.61
2022-08-18T21:08:20.076Z,25.52
2022-08-18T21:13:46.244Z,25.43
2022-08-18T21:19:01.033Z,25.34
2022-08-18T21:24:04.544Z,25.25
2022-08-18T21:29:14.105Z,25.21
2022-08-18T21:34:41.721Z,25.13
2022-08-18T21:39:48.079Z,25.06
2022-08-18T21:44:54.594Z,25.04
2022-08-18T21:50:09.709Z,24.98
2022-08-18T21:55:24.227Z,24.89
2022-08-18T22:00:30.010Z,24.86
2022-08-18T22:05:57.953Z,24.83
2022-08-18T22:11:44.164Z,24.82
2022-08-18T22:16:50.246Z,24.81
2022-08-18T22:22:22.497Z,24.78
2022-08-18T22:27:26.738Z,24.77
2022-08-18T22:32:28.584Z,24.76
2022-08-18T22:37:36.863Z,24.75
2022-08-18T22:42:39.653Z,24.73
2022-08-18T22:47:43.223Z,24.72
2022-08-18T22:52:49.663Z,24.70
2022-08-18T22:57:56.112Z,24.68
2022-08-18T23:02:59.206Z,24.65
2022-08-18T23:08:02.773Z,24.62
2022-08-18T23:13:04.755Z,24.57
2022-08-18T23:18:06.591Z,24.51
2022-08-18T23:23:08.603Z,24.50
2022-08-18T23:28:11.585Z,24.44
2022-08-18T23:33:15.081Z,24.35
2022-08-18T23:38:17.956Z,24.32
2022-08-18T23:43:20.401Z,24.31
2022-08-18T23:48:22.313Z,24.27
2022-08-18T23:53:24.111Z,24.25
2022-08-18T23:58:25.934Z,24.21
